74V

Roosevelt Municipal Airport

Roosevelt, Utah, USA
METAR K74V 241355Z AUTO 23004KT 10SM CLR 08/04 A3003 RMK AO2
Observed Flight Rules
Sep-24 @ 13:55 UTC (12 minutes ago) Visual Flight Rules
Wind Visibility Clouds
230° at 4 knots 10 miles
  • Clear skies
Temperatures Readings
Current 8°C / 46°F
Dewpoint 4°C / 39°F
Humidity 76%
Altimeter 30.03" Hg
Pressure 1017 hPa
Elevation 1576
METAR K74V 241355Z AUTO 23004KT 10SM CLR 08/04 A3003 RMK AO2
Observed Flight Rules
Sep-24 @ 13:55 UTC
(12 minutes ago)
VFR
Wind Visibility
230° at 4 knots 10 miles
Clouds
  • Clear skies
Temperature Dewpoint
8°C / 46°F 4°C / 39°F
Humidity Altimeter Pressure
76% 30.03" Hg 1017 hPa